sensor_id;sensor_type;location;lat;lon;timestamp;temperature;humidity
4826;DHT22;2427;50.934;6.776;2022-09-09T00:00:13;16.20;1.00
4826;DHT22;2427;50.934;6.776;2022-09-09T00:02:44;16.20;26.10
4826;DHT22;2427;50.934;6.776;2022-09-09T00:05:41;16.20;99.90
4826;DHT22;2427;50.934;6.776;2022-09-09T00:08:25;16.20;1.00
4826;DHT22;2427;50.934;6.776;2022-09-09T00:10:58;16.30;1.00
4826;DHT22;2427;50.934;6.776;2022-09-09T00:13:36;16.30;1.00
4826;DHT22;2427;50.934;6.776;2022-09-09T00:21:25;16.40;99.90
4826;DHT22;2427;50.934;6.776;2022-09-09T00:23:56;16.40;1.00
4826;DHT22;2427;50.934;6.776;2022-09-09T00:31:38;16.40;1.00
4826;DHT22;2427;50.934;6.776;2022-09-09T00:34:20;16.30;99.90
4826;DHT22;2427;50.934;6.776;2022-09-09T00:36:49;16.30;1.00
4826;DHT22;2427;50.934;6.776;2022-09-09T00:39:36;16.20;99.90
4826;DHT22;2427;50.934;6.776;2022-09-09T00:42:14;16.20;99.90
4826;DHT22;2427;50.934;6.776;2022-09-09T00:47:53;16.10;1.00
4826;DHT22;2427;50.934;6.776;2022-09-09T00:50:35;16.10;1.00
4826;DHT22;2427;50.934;6.776;2022-09-09T00:56:03;16.00;1.00
4826;DHT22;2427;50.934;6.776;2022-09-09T00:58:33;16.00;1.00
4826;DHT22;2427;50.934;6.776;2022-09-09T01:13:55;15.90;1.00
4826;DHT22;2427;50.934;6.776;2022-09-09T01:16:21;15.80;1.00
4826;DHT22;2427;50.934;6.776;2022-09-09T01:18:51;15.80;99.90
4826;DHT22;2427;50.934;6.776;2022-09-09T01:24:08;15.80;1.00
4826;DHT22;2427;50.934;6.776;2022-09-09T01:26:44;15.80;1.00
4826;DHT22;2427;50.934;6.776;2022-09-09T01:29:13;15.80;1.00
4826;DHT22;2427;50.934;6.776;2022-09-09T01:32:02;15.80;1.00
4826;DHT22;2427;50.934;6.776;2022-09-09T01:34:30;15.70;99.90
4826;DHT22;2427;50.934;6.776;2022-09-09T01:37:06;15.80;99.90
4826;DHT22;2427;50.934;6.776;2022-09-09T01:39:37;15.80;92.90
4826;DHT22;2427;50.934;6.776;2022-09-09T01:42:05;15.70;99.90
4826;DHT22;2427;50.934;6.776;2022-09-09T01:44:33;15.80;32.50
4826;DHT22;2427;50.934;6.776;2022-09-09T01:46:59;15.80;9.40
4826;DHT22;2427;50.934;6.776;2022-09-09T01:49:25;15.80;1.00
4826;DHT22;2427;50.934;6.776;2022-09-09T01:51:54;15.90;1.00
4826;DHT22;2427;50.934;6.776;2022-09-09T01:54:21;15.90;1.00
4826;DHT22;2427;50.934;6.776;2022-09-09T02:07:42;16.00;1.00
4826;DHT22;2427;50.934;6.776;2022-09-09T02:12:41;16.00;1.00
4826;DHT22;2427;50.934;6.776;2022-09-09T02:15:17;16.00;1.00
4826;DHT22;2427;50.934;6.776;2022-09-09T02:17:46;16.00;1.00
4826;DHT22;2427;50.934;6.776;2022-09-09T02:20:13;16.00;1.00
4826;DHT22;2427;50.934;6.776;2022-09-09T02:22:42;16.00;1.00
4826;DHT22;2427;50.934;6.776;2022-09-09T02:25:13;16.00;1.00
4826;DHT22;2427;50.934;6.776;2022-09-09T02:27:41;16.00;1.00
4826;DHT22;2427;50.934;6.776;2022-09-09T02:30:09;16.00;1.00
4826;DHT22;2427;50.934;6.776;2022-09-09T02:32:36;16.00;1.00
4826;DHT22;2427;50.934;6.776;2022-09-09T02:35:07;15.90;10.90
4826;DHT22;2427;50.934;6.776;2022-09-09T02:37:37;15.90;82.70
4826;DHT22;2427;50.934;6.776;2022-09-09T02:40:08;15.90;99.90
4826;DHT22;2427;50.934;6.776;2022-09-09T02:42:41;15.90;99.90
4826;DHT22;2427;50.934;6.776;2022-09-09T02:45:08;16.00;99.90
4826;DHT22;2427;50.934;6.776;2022-09-09T02:50:25;16.00;99.90
4826;DHT22;2427;50.934;6.776;2022-09-09T02:53:17;16.00;99.90
4826;DHT22;2427;50.934;6.776;2022-09-09T02:55:58;16.00;99.90
4826;DHT22;2427;50.934;6.776;2022-09-09T02:58:25;16.00;92.60
4826;DHT22;2427;50.934;6.776;2022-09-09T03:00:52;16.10;7.60
4826;DHT22;2427;50.934;6.776;2022-09-09T03:03:19;16.10;99.90
4826;DHT22;2427;50.934;6.776;2022-09-09T03:05:45;16.10;99.90
4826;DHT22;2427;50.934;6.776;2022-09-09T03:08:11;16.10;76.70
4826;DHT22;2427;50.934;6.776;2022-09-09T03:10:38;16.20;70.80
4826;DHT22;2427;50.934;6.776;2022-09-09T03:13:04;16.20;97.60
4826;DHT22;2427;50.934;6.776;2022-09-09T03:15:31;16.20;1.00
4826;DHT22;2427;50.934;6.776;2022-09-09T03:17:58;16.30;1.00
4826;DHT22;2427;50.934;6.776;2022-09-09T03:20:25;16.30;1.00
4826;DHT22;2427;50.934;6.776;2022-09-09T03:22:55;16.30;1.00
4826;DHT22;2427;50.934;6.776;2022-09-09T03:25:21;16.40;1.00
4826;DHT22;2427;50.934;6.776;2022-09-09T03:27:49;16.40;1.00
4826;DHT22;2427;50.934;6.776;2022-09-09T03:30:15;16.40;1.00
4826;DHT22;2427;50.934;6.776;2022-09-09T03:32:41;16.40;1.00
4826;DHT22;2427;50.934;6.776;2022-09-09T03:35:07;16.40;1.00
4826;DHT22;2427;50.934;6.776;2022-09-09T03:37:33;16.40;1.00
4826;DHT22;2427;50.934;6.776;2022-09-09T03:39:59;16.40;1.00
4826;DHT22;2427;50.934;6.776;2022-09-09T03:42:25;16.40;1.00
4826;DHT22;2427;50.934;6.776;2022-09-09T03:44:50;16.50;99.90
4826;DHT22;2427;50.934;6.776;2022-09-09T03:47:20;16.40;99.90
4826;DHT22;2427;50.934;6.776;2022-09-09T03:49:47;16.40;1.00
4826;DHT22;2427;50.934;6.776;2022-09-09T03:52:13;16.50;1.00
4826;DHT22;2427;50.934;6.776;2022-09-09T03:54:39;16.50;99.90
4826;DHT22;2427;50.934;6.776;2022-09-09T03:57:06;16.50;99.90
4826;DHT22;2427;50.934;6.776;2022-09-09T03:59:32;16.50;99.90
4826;DHT22;2427;50.934;6.776;2022-09-09T04:01:57;16.60;99.90
4826;DHT22;2427;50.934;6.776;2022-09-09T04:04:24;16.50;99.90
4826;DHT22;2427;50.934;6.776;2022-09-09T04:06:51;16.60;99.90
4826;DHT22;2427;50.934;6.776;2022-09-09T04:09:17;16.60;99.90
4826;DHT22;2427;50.934;6.776;2022-09-09T04:11:43;16.60;99.90
4826;DHT22;2427;50.934;6.776;2022-09-09T04:14:08;16.70;99.90
4826;DHT22;2427;50.934;6.776;2022-09-09T04:16:34;16.70;99.90
4826;DHT22;2427;50.934;6.776;2022-09-09T04:19:03;16.60;99.90
4826;DHT22;2427;50.934;6.776;2022-09-09T04:21:33;16.60;99.90
4826;DHT22;2427;50.934;6.776;2022-09-09T04:23:58;16.60;99.90
4826;DHT22;2427;50.934;6.776;2022-09-09T04:26:24;16.60;99.90
4826;DHT22;2427;50.934;6.776;2022-09-09T04:28:50;16.70;99.90
4826;DHT22;2427;50.934;6.776;2022-09-09T04:31:21;16.60;99.90
4826;DHT22;2427;50.934;6.776;2022-09-09T04:33:48;16.60;99.90
4826;DHT22;2427;50.934;6.776;2022-09-09T04:36:15;16.60;99.90
4826;DHT22;2427;50.934;6.776;2022-09-09T04:38:40;16.60;99.90
4826;DHT22;2427;50.934;6.776;2022-09-09T04:41:06;16.60;99.90
4826;DHT22;2427;50.934;6.776;2022-09-09T04:43:33;16.70;60.90
4826;DHT22;2427;50.934;6.776;2022-09-09T04:45:58;16.60;99.90
4826;DHT22;2427;50.934;6.776;2022-09-09T04:48:24;16.60;99.90
4826;DHT22;2427;50.934;6.776;2022-09-09T04:50:58;16.70;99.90
4826;DHT22;2427;50.934;6.776;2022-09-09T04:53:25;16.70;28.10
4826;DHT22;2427;50.934;6.776;2022-09-09T04:55:53;16.70;99.90
4826;DHT22;2427;50.934;6.776;2022-09-09T04:58:26;16.70;30.80
4826;DHT22;2427;50.934;6.776;2022-09-09T05:00:52;16.70;14.50
4826;DHT22;2427;50.934;6.776;2022-09-09T05:03:17;16.70;1.00
4826;DHT22;2427;50.934;6.776;2022-09-09T05:05:44;16.70;1.00
4826;DHT22;2427;50.934;6.776;2022-09-09T05:08:10;16.80;1.00
4826;DHT22;2427;50.934;6.776;2022-09-09T05:10:38;16.80;1.00
4826;DHT22;2427;50.934;6.776;2022-09-09T05:13:04;16.80;1.00
4826;DHT22;2427;50.934;6.776;2022-09-09T05:15:30;16.80;1.00
4826;DHT22;2427;50.934;6.776;2022-09-09T05:18:00;16.80;1.00
4826;DHT22;2427;50.934;6.776;2022-09-09T05:20:26;16.80;1.00
4826;DHT22;2427;50.934;6.776;2022-09-09T05:22:56;16.90;1.00
4826;DHT22;2427;50.934;6.776;2022-09-09T05:25:22;16.90;1.00
4826;DHT22;2427;50.934;6.776;2022-09-09T05:27:50;16.90;1.00
4826;DHT22;2427;50.934;6.776;2022-09-09T05:30:15;16.90;1.00
4826;DHT22;2427;50.934;6.776;2022-09-09T05:32:42;16.90;1.00
4826;DHT22;2427;50.934;6.776;2022-09-09T05:35:08;16.90;1.00
4826;DHT22;2427;50.934;6.776;2022-09-09T05:37:34;16.90;1.00
4826;DHT22;2427;50.934;6.776;2022-09-09T05:40:00;17.00;1.00
4826;DHT22;2427;50.934;6.776;2022-09-09T05:42:30;17.00;1.00
4826;DHT22;2427;50.934;6.776;2022-09-09T05:44:56;17.00;1.00
4826;DHT22;2427;50.934;6.776;2022-09-09T05:47:22;17.00;99.90
4826;DHT22;2427;50.934;6.776;2022-09-09T05:49:48;17.10;99.90
4826;DHT22;2427;50.934;6.776;2022-09-09T05:52:14;17.10;99.90
4826;DHT22;2427;50.934;6.776;2022-09-09T05:54:40;17.10;99.90
4826;DHT22;2427;50.934;6.776;2022-09-09T05:57:06;17.10;99.90
4826;DHT22;2427;50.934;6.776;2022-09-09T05:59:32;17.10;99.90
4826;DHT22;2427;50.934;6.776;2022-09-09T06:01:57;17.10;99.90
4826;DHT22;2427;50.934;6.776;2022-09-09T06:04:23;17.10;99.90
4826;DHT22;2427;50.934;6.776;2022-09-09T06:06:49;17.20;99.90
4826;DHT22;2427;50.934;6.776;2022-09-09T06:09:15;17.10;99.90
4826;DHT22;2427;50.934;6.776;2022-09-09T06:11:42;17.20;99.90
4826;DHT22;2427;50.934;6.776;2022-09-09T06:14:08;17.20;99.90
4826;DHT22;2427;50.934;6.776;2022-09-09T06:16:34;17.20;99.90
4826;DHT22;2427;50.934;6.776;2022-09-09T06:19:02;17.10;99.90
4826;DHT22;2427;50.934;6.776;2022-09-09T06:21:33;17.10;99.90
4826;DHT22;2427;50.934;6.776;2022-09-09T06:23:59;17.00;99.90
4826;DHT22;2427;50.934;6.776;2022-09-09T06:28:53;17.10;99.90
4826;DHT22;2427;50.934;6.776;2022-09-09T06:31:21;17.10;99.90
4826;DHT22;2427;50.934;6.776;2022-09-09T06:33:52;17.30;99.90
4826;DHT22;2427;50.934;6.776;2022-09-09T06:36:29;17.30;99.90
4826;DHT22;2427;50.934;6.776;2022-09-09T06:38:55;17.40;99.90
4826;DHT22;2427;50.934;6.776;2022-09-09T06:41:22;17.40;62.70
4826;DHT22;2427;50.934;6.776;2022-09-09T06:43:48;17.50;59.60
4826;DHT22;2427;50.934;6.776;2022-09-09T06:46:25;17.40;41.00
4826;DHT22;2427;50.934;6.776;2022-09-09T06:48:54;17.40;32.40
4826;DHT22;2427;50.934;6.776;2022-09-09T06:51:29;17.40;98.80
4826;DHT22;2427;50.934;6.776;2022-09-09T06:53:57;17.50;97.80
4826;DHT22;2427;50.934;6.776;2022-09-09T06:56:29;17.50;41.40
4826;DHT22;2427;50.934;6.776;2022-09-09T06:58:57;17.70;30.30
4826;DHT22;2427;50.934;6.776;2022-09-09T07:01:28;17.80;1.00
4826;DHT22;2427;50.934;6.776;2022-09-09T07:03:56;17.90;1.00
4826;DHT22;2427;50.934;6.776;2022-09-09T07:06:26;17.90;1.00
4826;DHT22;2427;50.934;6.776;2022-09-09T07:09:00;18.00;1.00
4826;DHT22;2427;50.934;6.776;2022-09-09T07:11:28;18.10;1.00
4826;DHT22;2427;50.934;6.776;2022-09-09T07:13:54;18.10;1.00
4826;DHT22;2427;50.934;6.776;2022-09-09T07:16:21;18.20;1.00
4826;DHT22;2427;50.934;6.776;2022-09-09T07:18:50;18.20;1.00
4826;DHT22;2427;50.934;6.776;2022-09-09T07:21:16;18.30;1.00
4826;DHT22;2427;50.934;6.776;2022-09-09T07:23:42;18.30;1.00
4826;DHT22;2427;50.934;6.776;2022-09-09T07:26:13;18.40;1.00
4826;DHT22;2427;50.934;6.776;2022-09-09T07:28:40;18.50;1.00
4826;DHT22;2427;50.934;6.776;2022-09-09T07:31:08;18.50;1.00
4826;DHT22;2427;50.934;6.776;2022-09-09T07:33:39;18.70;1.00
4826;DHT22;2427;50.934;6.776;2022-09-09T07:36:12;18.60;1.00
4826;DHT22;2427;50.934;6.776;2022-09-09T07:38:52;18.70;1.00
4826;DHT22;2427;50.934;6.776;2022-09-09T07:41:24;18.70;1.00
4826;DHT22;2427;50.934;6.776;2022-09-09T07:43:50;18.80;1.00
4826;DHT22;2427;50.934;6.776;2022-09-09T07:46:18;18.90;1.00
4826;DHT22;2427;50.934;6.776;2022-09-09T07:48:49;19.10;1.00
4826;DHT22;2427;50.934;6.776;2022-09-09T07:51:19;19.20;1.00
4826;DHT22;2427;50.934;6.776;2022-09-09T07:53:47;19.40;99.90
4826;DHT22;2427;50.934;6.776;2022-09-09T07:56:15;19.40;99.90
4826;DHT22;2427;50.934;6.776;2022-09-09T07:58:44;19.40;99.90
4826;DHT22;2427;50.934;6.776;2022-09-09T08:01:32;19.40;99.90
4826;DHT22;2427;50.934;6.776;2022-09-09T08:03:59;19.30;99.90
4826;DHT22;2427;50.934;6.776;2022-09-09T08:06:25;19.30;99.90
4826;DHT22;2427;50.934;6.776;2022-09-09T08:08:52;19.30;99.90
4826;DHT22;2427;50.934;6.776;2022-09-09T08:11:18;19.20;99.90
4826;DHT22;2427;50.934;6.776;2022-09-09T08:13:44;19.20;99.90
4826;DHT22;2427;50.934;6.776;2022-09-09T08:16:14;19.20;99.90
4826;DHT22;2427;50.934;6.776;2022-09-09T08:18:40;19.30;99.90
4826;DHT22;2427;50.934;6.776;2022-09-09T08:21:11;19.20;99.90
4826;DHT22;2427;50.934;6.776;2022-09-09T08:23:40;19.30;99.90
4826;DHT22;2427;50.934;6.776;2022-09-09T08:26:12;19.20;99.90
4826;DHT22;2427;50.934;6.776;2022-09-09T08:28:39;19.40;99.90
4826;DHT22;2427;50.934;6.776;2022-09-09T08:31:10;19.50;99.90
4826;DHT22;2427;50.934;6.776;2022-09-09T08:33:37;19.70;99.90
4826;DHT22;2427;50.934;6.776;2022-09-09T08:36:05;19.80;99.90
4826;DHT22;2427;50.934;6.776;2022-09-09T08:38:31;19.70;99.90
4826;DHT22;2427;50.934;6.776;2022-09-09T08:43:43;19.90;99.90
4826;DHT22;2427;50.934;6.776;2022-09-09T08:46:26;19.90;99.90
4826;DHT22;2427;50.934;6.776;2022-09-09T08:49:34;19.90;99.90
4826;DHT22;2427;50.934;6.776;2022-09-09T08:52:03;20.00;99.90
4826;DHT22;2427;50.934;6.776;2022-09-09T08:54:34;20.20;99.90
4826;DHT22;2427;50.934;6.776;2022-09-09T08:57:00;20.30;99.90
4826;DHT22;2427;50.934;6.776;2022-09-09T08:59:25;20.40;99.90
4826;DHT22;2427;50.934;6.776;2022-09-09T09:12:35;20.40;99.90
4826;DHT22;2427;50.934;6.776;2022-09-09T09:15:14;20.40;99.90
4826;DHT22;2427;50.934;6.776;2022-09-09T09:17:42;20.20;99.90
4826;DHT22;2427;50.934;6.776;2022-09-09T09:20:13;20.20;99.90
4826;DHT22;2427;50.934;6.776;2022-09-09T09:22:49;20.10;99.90
4826;DHT22;2427;50.934;6.776;2022-09-09T09:25:34;20.00;99.90
4826;DHT22;2427;50.934;6.776;2022-09-09T09:28:25;19.90;99.90
4826;DHT22;2427;50.934;6.776;2022-09-09T09:31:04;19.80;99.90
4826;DHT22;2427;50.934;6.776;2022-09-09T09:33:50;19.80;99.90
4826;DHT22;2427;50.934;6.776;2022-09-09T09:36:19;19.70;99.90
4826;DHT22;2427;50.934;6.776;2022-09-09T09:38:56;19.80;99.90
4826;DHT22;2427;50.934;6.776;2022-09-09T09:41:48;19.80;99.90
4826;DHT22;2427;50.934;6.776;2022-09-09T09:44:27;19.80;99.90
4826;DHT22;2427;50.934;6.776;2022-09-09T09:47:04;19.80;99.90
4826;DHT22;2427;50.934;6.776;2022-09-09T09:49:30;19.90;99.90
4826;DHT22;2427;50.934;6.776;2022-09-09T09:52:03;19.90;99.90
4826;DHT22;2427;50.934;6.776;2022-09-09T09:54:32;20.10;99.90
4826;DHT22;2427;50.934;6.776;2022-09-09T09:57:16;20.20;99.90
4826;DHT22;2427;50.934;6.776;2022-09-09T09:59:42;20.20;99.90
4826;DHT22;2427;50.934;6.776;2022-09-09T10:02:17;20.50;99.90
4826;DHT22;2427;50.934;6.776;2022-09-09T10:04:44;20.60;99.90
4826;DHT22;2427;50.934;6.776;2022-09-09T10:07:21;20.70;99.90
4826;DHT22;2427;50.934;6.776;2022-09-09T10:09:54;20.70;99.90
4826;DHT22;2427;50.934;6.776;2022-09-09T10:24:07;20.50;99.90
4826;DHT22;2427;50.934;6.776;2022-09-09T10:26:58;20.50;99.90
4826;DHT22;2427;50.934;6.776;2022-09-09T10:35:02;20.50;99.90
4826;DHT22;2427;50.934;6.776;2022-09-09T10:37:54;20.60;99.90
4826;DHT22;2427;50.934;6.776;2022-09-09T10:43:11;20.80;99.90
4826;DHT22;2427;50.934;6.776;2022-09-09T10:48:31;21.20;99.90
4826;DHT22;2427;50.934;6.776;2022-09-09T10:56:24;21.20;99.90
4826;DHT22;2427;50.934;6.776;2022-09-09T10:59:00;21.30;99.90
4826;DHT22;2427;50.934;6.776;2022-09-09T11:01:33;21.40;99.90
4826;DHT22;2427;50.934;6.776;2022-09-09T11:04:05;21.30;99.90
4826;DHT22;2427;50.934;6.776;2022-09-09T11:06:41;21.30;99.90
4826;DHT22;2427;50.934;6.776;2022-09-09T11:09:14;21.30;99.90
4826;DHT22;2427;50.934;6.776;2022-09-09T11:11:53;21.30;99.90
4826;DHT22;2427;50.934;6.776;2022-09-09T11:16:47;20.90;99.90
4826;DHT22;2427;50.934;6.776;2022-09-09T11:19:31;20.90;99.90
4826;DHT22;2427;50.934;6.776;2022-09-09T11:22:18;21.10;99.90
4826;DHT22;2427;50.934;6.776;2022-09-09T11:24:53;21.20;99.90
4826;DHT22;2427;50.934;6.776;2022-09-09T11:27:24;21.20;99.90
4826;DHT22;2427;50.934;6.776;2022-09-09T11:38:01;20.90;99.90
4826;DHT22;2427;50.934;6.776;2022-09-09T11:40:30;20.90;99.90
4826;DHT22;2427;50.934;6.776;2022-09-09T11:43:24;20.90;99.90
4826;DHT22;2427;50.934;6.776;2022-09-09T11:45:53;20.90;99.90
4826;DHT22;2427;50.934;6.776;2022-09-09T11:51:01;20.80;99.90
4826;DHT22;2427;50.934;6.776;2022-09-09T11:53:28;20.70;99.90
4826;DHT22;2427;50.934;6.776;2022-09-09T11:58:38;20.70;99.90
4826;DHT22;2427;50.934;6.776;2022-09-09T12:01:27;20.60;99.90
4826;DHT22;2427;50.934;6.776;2022-09-09T12:04:10;20.50;99.90
4826;DHT22;2427;50.934;6.776;2022-09-09T12:06:57;20.40;99.90
4826;DHT22;2427;50.934;6.776;2022-09-09T12:12:30;20.50;99.90
4826;DHT22;2427;50.934;6.776;2022-09-09T12:15:25;20.70;99.90
4826;DHT22;2427;50.934;6.776;2022-09-09T12:17:55;20.70;99.90
4826;DHT22;2427;50.934;6.776;2022-09-09T12:20:34;20.80;99.90
4826;DHT22;2427;50.934;6.776;2022-09-09T12:28:56;20.60;99.90
4826;DHT22;2427;50.934;6.776;2022-09-09T12:33:51;20.10;99.90
4826;DHT22;2427;50.934;6.776;2022-09-09T12:36:29;19.90;99.90
4826;DHT22;2427;50.934;6.776;2022-09-09T12:38:58;19.80;99.90
4826;DHT22;2427;50.934;6.776;2022-09-09T12:41:35;19.60;99.90
4826;DHT22;2427;50.934;6.776;2022-09-09T12:44:05;19.40;1.00
4826;DHT22;2427;50.934;6.776;2022-09-09T12:46:42;19.60;1.00
4826;DHT22;2427;50.934;6.776;2022-09-09T12:49:27;20.00;1.00
4826;DHT22;2427;50.934;6.776;2022-09-09T12:51:53;20.80;99.90
4826;DHT22;2427;50.934;6.776;2022-09-09T12:54:20;21.30;99.90
4826;DHT22;2427;50.934;6.776;2022-09-09T12:56:47;21.90;99.90
4826;DHT22;2427;50.934;6.776;2022-09-09T12:59:25;22.30;99.90
4826;DHT22;2427;50.934;6.776;2022-09-09T13:01:56;22.40;99.90
4826;DHT22;2427;50.934;6.776;2022-09-09T13:04:22;22.50;99.90
4826;DHT22;2427;50.934;6.776;2022-09-09T13:06:48;22.40;99.90
4826;DHT22;2427;50.934;6.776;2022-09-09T13:09:15;22.30;99.90
4826;DHT22;2427;50.934;6.776;2022-09-09T13:11:47;22.00;99.90
4826;DHT22;2427;50.934;6.776;2022-09-09T13:14:29;21.70;99.90
4826;DHT22;2427;50.934;6.776;2022-09-09T13:16:58;21.50;99.90
4826;DHT22;2427;50.934;6.776;2022-09-09T13:19:24;21.20;99.90
4826;DHT22;2427;50.934;6.776;2022-09-09T13:21:54;21.20;99.90
4826;DHT22;2427;50.934;6.776;2022-09-09T13:24:34;21.40;99.90
4826;DHT22;2427;50.934;6.776;2022-09-09T13:27:02;21.70;99.90
4826;DHT22;2427;50.934;6.776;2022-09-09T13:29:30;21.60;99.90
4826;DHT22;2427;50.934;6.776;2022-09-09T13:32:12;21.40;99.90
4826;DHT22;2427;50.934;6.776;2022-09-09T13:34:53;21.20;99.90
4826;DHT22;2427;50.934;6.776;2022-09-09T13:37:36;21.50;99.90
4826;DHT22;2427;50.934;6.776;2022-09-09T13:40:04;23.00;99.90
4826;DHT22;2427;50.934;6.776;2022-09-09T13:42:33;23.40;99.90
4826;DHT22;2427;50.934;6.776;2022-09-09T13:45:00;23.30;99.90
4826;DHT22;2427;50.934;6.776;2022-09-09T13:47:30;22.80;99.90
4826;DHT22;2427;50.934;6.776;2022-09-09T13:49:57;22.30;99.90
4826;DHT22;2427;50.934;6.776;2022-09-09T13:52:23;21.90;99.90
4826;DHT22;2427;50.934;6.776;2022-09-09T13:54:50;21.60;99.90
4826;DHT22;2427;50.934;6.776;2022-09-09T13:57:22;21.30;99.90
4826;DHT22;2427;50.934;6.776;2022-09-09T13:59:49;21.10;99.90
4826;DHT22;2427;50.934;6.776;2022-09-09T14:02:15;21.00;99.90
4826;DHT22;2427;50.934;6.776;2022-09-09T14:04:42;20.80;99.90
4826;DHT22;2427;50.934;6.776;2022-09-09T14:07:13;20.70;99.90
4826;DHT22;2427;50.934;6.776;2022-09-09T14:09:40;20.50;99.90
4826;DHT22;2427;50.934;6.776;2022-09-09T14:12:11;20.00;99.90
4826;DHT22;2427;50.934;6.776;2022-09-09T14:14:37;19.00;1.00
4826;DHT22;2427;50.934;6.776;2022-09-09T14:17:03;18.10;1.00
4826;DHT22;2427;50.934;6.776;2022-09-09T14:19:29;17.60;1.00
4826;DHT22;2427;50.934;6.776;2022-09-09T14:21:56;17.10;1.00
4826;DHT22;2427;50.934;6.776;2022-09-09T14:24:22;16.80;1.00
4826;DHT22;2427;50.934;6.776;2022-09-09T14:26:47;16.60;1.00
4826;DHT22;2427;50.934;6.776;2022-09-09T14:29:13;16.30;1.00
4826;DHT22;2427;50.934;6.776;2022-09-09T14:31:38;16.30;1.00
4826;DHT22;2427;50.934;6.776;2022-09-09T14:34:04;16.20;99.90
4826;DHT22;2427;50.934;6.776;2022-09-09T14:36:31;16.20;99.90
4826;DHT22;2427;50.934;6.776;2022-09-09T14:38:57;16.30;99.90
4826;DHT22;2427;50.934;6.776;2022-09-09T14:41:22;16.30;99.90
4826;DHT22;2427;50.934;6.776;2022-09-09T14:43:48;16.50;99.90
4826;DHT22;2427;50.934;6.776;2022-09-09T14:46:16;16.60;99.90
4826;DHT22;2427;50.934;6.776;2022-09-09T14:48:42;16.70;99.90
4826;DHT22;2427;50.934;6.776;2022-09-09T14:53:36;17.00;99.90
4826;DHT22;2427;50.934;6.776;2022-09-09T14:56:25;17.20;99.90
4826;DHT22;2427;50.934;6.776;2022-09-09T14:58:53;17.30;99.90
4826;DHT22;2427;50.934;6.776;2022-09-09T15:01:20;17.60;99.90
4826;DHT22;2427;50.934;6.776;2022-09-09T15:04:05;17.70;99.90
4826;DHT22;2427;50.934;6.776;2022-09-09T15:06:33;17.60;99.90
4826;DHT22;2427;50.934;6.776;2022-09-09T15:08:59;17.60;99.90
4826;DHT22;2427;50.934;6.776;2022-09-09T15:11:31;17.50;99.90
4826;DHT22;2427;50.934;6.776;2022-09-09T15:13:58;17.30;99.90
4826;DHT22;2427;50.934;6.776;2022-09-09T15:16:26;17.30;89.40
4826;DHT22;2427;50.934;6.776;2022-09-09T15:18:55;17.40;66.70
4826;DHT22;2427;50.934;6.776;2022-09-09T15:21:22;17.50;89.30
4826;DHT22;2427;50.934;6.776;2022-09-09T15:23:49;17.70;70.60
4826;DHT22;2427;50.934;6.776;2022-09-09T15:26:15;18.10;30.90
4826;DHT22;2427;50.934;6.776;2022-09-09T15:28:42;18.60;1.00
4826;DHT22;2427;50.934;6.776;2022-09-09T15:31:20;18.70;1.00
4826;DHT22;2427;50.934;6.776;2022-09-09T15:33:56;18.60;1.00
4826;DHT22;2427;50.934;6.776;2022-09-09T15:36:32;18.50;1.00
4826;DHT22;2427;50.934;6.776;2022-09-09T15:38:58;18.50;1.00
4826;DHT22;2427;50.934;6.776;2022-09-09T15:41:25;18.70;1.00
4826;DHT22;2427;50.934;6.776;2022-09-09T15:43:52;19.00;1.00
4826;DHT22;2427;50.934;6.776;2022-09-09T15:51:42;19.30;1.00
4826;DHT22;2427;50.934;6.776;2022-09-09T15:54:09;19.10;99.90
4826;DHT22;2427;50.934;6.776;2022-09-09T15:56:35;19.80;99.90
4826;DHT22;2427;50.934;6.776;2022-09-09T15:59:01;20.60;1.00
4826;DHT22;2427;50.934;6.776;2022-09-09T16:01:29;21.70;99.90
4826;DHT22;2427;50.934;6.776;2022-09-09T16:03:56;21.90;1.00
4826;DHT22;2427;50.934;6.776;2022-09-09T16:06:23;21.30;74.00
4826;DHT22;2427;50.934;6.776;2022-09-09T16:08:51;20.50;99.90
4826;DHT22;2427;50.934;6.776;2022-09-09T16:11:22;19.70;1.00
4826;DHT22;2427;50.934;6.776;2022-09-09T16:13:50;19.30;99.90
4826;DHT22;2427;50.934;6.776;2022-09-09T16:16:18;19.00;1.00
4826;DHT22;2427;50.934;6.776;2022-09-09T16:18:51;18.80;99.90
4826;DHT22;2427;50.934;6.776;2022-09-09T16:21:24;18.60;1.00
4826;DHT22;2427;50.934;6.776;2022-09-09T16:23:53;18.50;1.00
4826;DHT22;2427;50.934;6.776;2022-09-09T16:26:19;18.40;1.00
4826;DHT22;2427;50.934;6.776;2022-09-09T16:28:45;18.30;1.00
4826;DHT22;2427;50.934;6.776;2022-09-09T16:31:16;18.30;99.90
4826;DHT22;2427;50.934;6.776;2022-09-09T16:33:42;18.30;99.90
4826;DHT22;2427;50.934;6.776;2022-09-09T16:36:13;18.30;99.90
4826;DHT22;2427;50.934;6.776;2022-09-09T16:38:39;18.30;16.90
4826;DHT22;2427;50.934;6.776;2022-09-09T16:41:06;18.40;99.90
4826;DHT22;2427;50.934;6.776;2022-09-09T16:43:33;18.40;1.00
4826;DHT22;2427;50.934;6.776;2022-09-09T16:45:59;18.50;1.00
4826;DHT22;2427;50.934;6.776;2022-09-09T16:48:31;18.60;1.00
4826;DHT22;2427;50.934;6.776;2022-09-09T16:51:06;18.60;1.00
4826;DHT22;2427;50.934;6.776;2022-09-09T16:53:33;18.50;99.90
4826;DHT22;2427;50.934;6.776;2022-09-09T16:56:04;18.40;99.90
4826;DHT22;2427;50.934;6.776;2022-09-09T16:58:29;18.40;99.90
4826;DHT22;2427;50.934;6.776;2022-09-09T17:00:59;18.30;1.00
4826;DHT22;2427;50.934;6.776;2022-09-09T17:03:25;18.30;99.90
4826;DHT22;2427;50.934;6.776;2022-09-09T17:05:51;18.30;1.00
4826;DHT22;2427;50.934;6.776;2022-09-09T17:08:16;18.20;1.00
4826;DHT22;2427;50.934;6.776;2022-09-09T17:10:42;18.20;1.00
4826;DHT22;2427;50.934;6.776;2022-09-09T17:13:07;18.10;1.00
4826;DHT22;2427;50.934;6.776;2022-09-09T17:15:33;18.00;1.00
4826;DHT22;2427;50.934;6.776;2022-09-09T17:17:59;18.00;6.30
4826;DHT22;2427;50.934;6.776;2022-09-09T17:20:25;17.90;1.00
4826;DHT22;2427;50.934;6.776;2022-09-09T17:22:50;17.80;99.90
4826;DHT22;2427;50.934;6.776;2022-09-09T17:25:16;17.80;99.90
4826;DHT22;2427;50.934;6.776;2022-09-09T17:27:42;17.70;1.00
4826;DHT22;2427;50.934;6.776;2022-09-09T17:30:08;17.60;99.90
4826;DHT22;2427;50.934;6.776;2022-09-09T17:32:34;17.60;87.80
4826;DHT22;2427;50.934;6.776;2022-09-09T17:35:01;17.50;1.00
4826;DHT22;2427;50.934;6.776;2022-09-09T17:37:26;17.50;1.00
4826;DHT22;2427;50.934;6.776;2022-09-09T17:39:52;17.40;1.00
4826;DHT22;2427;50.934;6.776;2022-09-09T17:42:18;17.30;1.00
4826;DHT22;2427;50.934;6.776;2022-09-09T17:44:43;17.30;4.40
4826;DHT22;2427;50.934;6.776;2022-09-09T17:47:09;17.20;99.90
4826;DHT22;2427;50.934;6.776;2022-09-09T17:49:34;17.10;1.00
4826;DHT22;2427;50.934;6.776;2022-09-09T17:52:00;17.10;99.90
4826;DHT22;2427;50.934;6.776;2022-09-09T17:54:25;17.10;99.90
4826;DHT22;2427;50.934;6.776;2022-09-09T17:56:51;17.10;99.90
4826;DHT22;2427;50.934;6.776;2022-09-09T17:59:18;17.10;1.00
4826;DHT22;2427;50.934;6.776;2022-09-09T18:01:45;17.00;99.90
4826;DHT22;2427;50.934;6.776;2022-09-09T18:04:13;17.00;99.90
4826;DHT22;2427;50.934;6.776;2022-09-09T18:06:41;17.00;1.00
4826;DHT22;2427;50.934;6.776;2022-09-09T18:09:13;17.00;99.90
4826;DHT22;2427;50.934;6.776;2022-09-09T18:11:44;17.00;1.00
4826;DHT22;2427;50.934;6.776;2022-09-09T18:14:12;17.00;99.90
4826;DHT22;2427;50.934;6.776;2022-09-09T18:16:40;16.90;1.00
4826;DHT22;2427;50.934;6.776;2022-09-09T18:19:08;16.80;99.90
4826;DHT22;2427;50.934;6.776;2022-09-09T18:21:34;16.80;1.00
4826;DHT22;2427;50.934;6.776;2022-09-09T18:24:02;16.70;99.90
4826;DHT22;2427;50.934;6.776;2022-09-09T18:26:28;16.60;99.90
4826;DHT22;2427;50.934;6.776;2022-09-09T18:28:57;16.40;1.00
4826;DHT22;2427;50.934;6.776;2022-09-09T18:31:25;16.30;1.00